createdAt,value
2018-07-10T00:02:03.480Z,4.43
2018-07-10T00:04:37.576Z,3.20
2018-07-10T00:07:11.390Z,4.40
2018-07-10T00:09:46.118Z,4.40
2018-07-10T00:12:15.854Z,4.87
2018-07-10T00:14:45.622Z,4.47
2018-07-10T00:17:16.582Z,3.47
2018-07-10T00:19:47.098Z,6.13
2018-07-10T00:22:17.009Z,4.53
2018-07-10T00:24:47.140Z,3.97
2018-07-10T00:27:17.062Z,4.27
2018-07-10T00:29:46.957Z,3.37
2018-07-10T00:32:17.592Z,3.07
2018-07-10T00:34:47.706Z,5.43
2018-07-10T00:37:17.736Z,3.83
2018-07-10T00:39:47.536Z,3.57
2018-07-10T00:42:17.563Z,4.63
2018-07-10T00:44:47.559Z,7.57
2018-07-10T00:47:17.603Z,5.40
2018-07-10T00:49:47.518Z,5.13
2018-07-10T00:52:21.826Z,4.80
2018-07-10T00:54:51.847Z,4.17
2018-07-10T00:57:21.858Z,3.20
2018-07-10T00:59:52.800Z,4.30
2018-07-10T01:02:23.017Z,4.23
2018-07-10T01:04:53.141Z,4.80
2018-07-10T01:07:23.046Z,4.33
2018-07-10T01:09:53.256Z,4.00
2018-07-10T01:12:23.071Z,3.73
2018-07-10T01:14:53.424Z,4.23
2018-07-10T01:17:23.631Z,6.33
2018-07-10T01:19:54.054Z,4.80
2018-07-10T01:22:24.386Z,3.63
2018-07-10T01:24:54.400Z,3.23
2018-07-10T01:27:24.606Z,4.80
2018-07-10T01:29:54.626Z,3.37
2018-07-10T01:32:24.531Z,3.93
2018-07-10T01:34:54.479Z,3.80
2018-07-10T01:37:24.778Z,3.40
2018-07-10T01:39:54.799Z,3.77
2018-07-10T01:42:25.011Z,4.40
2018-07-10T01:44:54.829Z,4.10
2018-07-10T01:47:25.155Z,4.43
2018-07-10T01:49:55.068Z,4.30
2018-07-10T01:52:24.998Z,3.47
2018-07-10T01:54:55.209Z,3.97
2018-07-10T01:57:25.225Z,4.63
2018-07-10T01:59:55.230Z,3.77
2018-07-10T02:02:25.977Z,3.33
2018-07-10T02:04:56.177Z,4.00
2018-07-10T02:07:26.717Z,3.37
2018-07-10T02:09:56.736Z,3.53
2018-07-10T02:12:26.650Z,4.90
2018-07-10T02:14:56.872Z,3.13
2018-07-10T02:17:26.987Z,3.93
2018-07-10T02:19:57.106Z,4.70
2018-07-10T02:22:27.020Z,3.50
2018-07-10T02:24:57.761Z,4.97
2018-07-10T02:27:27.981Z,3.93
2018-07-10T02:29:57.788Z,7.03
2018-07-10T02:32:27.820Z,6.23
2018-07-10T02:34:57.840Z,4.57
2018-07-10T02:37:28.160Z,7.77
2018-07-10T02:39:58.260Z,3.87
2018-07-10T02:42:29.518Z,6.77
2018-07-10T02:45:00.066Z,3.23
2018-07-10T02:47:31.589Z,3.80
2018-07-10T02:50:01.598Z,3.47
2018-07-10T02:52:36.026Z,3.87
2018-07-10T02:55:06.463Z,3.70
2018-07-10T02:57:37.191Z,4.50
2018-07-10T03:00:07.099Z,3.60
2018-07-10T03:02:37.442Z,4.57
2018-07-10T03:05:08.157Z,4.30
2018-07-10T03:07:39.208Z,3.70
2018-07-10T03:10:09.236Z,2.83
2018-07-10T03:12:40.450Z,3.60
2018-07-10T03:15:14.672Z,5.80
2018-07-10T03:17:45.200Z,3.03
2018-07-10T03:20:15.112Z,4.33
2018-07-10T03:22:45.147Z,3.07
2018-07-10T03:25:15.381Z,3.70
2018-07-10T03:27:45.379Z,3.83
2018-07-10T03:30:15.498Z,4.13
2018-07-10T03:32:45.399Z,5.83
2018-07-10T03:35:15.421Z,5.20
2018-07-10T03:37:45.552Z,4.03
2018-07-10T03:40:15.571Z,6.17
2018-07-10T03:42:45.470Z,3.97
2018-07-10T03:45:15.591Z,4.80
2018-07-10T03:47:46.136Z,4.57
2018-07-10T03:50:16.139Z,3.93
2018-07-10T03:52:45.934Z,4.03
2018-07-10T03:55:16.483Z,4.97
2018-07-10T03:57:46.227Z,4.47
2018-07-10T04:00:16.713Z,5.27
2018-07-10T04:02:48.058Z,7.03
2018-07-10T04:05:19.730Z,5.03
2018-07-10T04:07:53.732Z,4.63
2018-07-10T04:10:27.624Z,5.10
2018-07-10T04:12:58.250Z,6.93
2018-07-10T04:15:27.980Z,3.53
2018-07-10T04:18:01.788Z,5.47
2018-07-10T04:20:33.142Z,3.87
2018-07-10T04:23:03.568Z,4.73
2018-07-10T04:25:35.018Z,6.23
2018-07-10T04:28:08.818Z,4.20
2018-07-10T04:30:43.042Z,14.10
2018-07-10T04:33:13.461Z,4.03
2018-07-10T04:35:43.481Z,4.63
2018-07-10T04:38:14.515Z,5.83
2018-07-10T04:40:44.730Z,4.67
2018-07-10T04:43:18.648Z,4.87
2018-07-10T04:45:48.451Z,7.23
2018-07-10T04:48:22.293Z,10.67
2018-07-10T04:50:56.257Z,4.20
2018-07-10T04:53:30.468Z,4.03
2018-07-10T04:56:00.512Z,4.07
2018-07-10T04:58:31.429Z,5.37
2018-07-10T05:01:05.562Z,5.27
2018-07-10T05:03:35.385Z,5.67
2018-07-10T05:06:06.973Z,4.20
2018-07-10T05:08:37.318Z,6.43
2018-07-10T05:11:07.570Z,4.73
2018-07-10T05:13:37.569Z,6.43
2018-07-10T05:16:07.476Z,4.60
2018-07-10T05:18:37.505Z,4.67
2018-07-10T05:21:12.436Z,4.80
2018-07-10T05:23:42.172Z,5.37
2018-07-10T05:26:16.970Z,5.87
2018-07-10T05:28:47.520Z,3.57
2018-07-10T05:31:18.225Z,3.90
2018-07-10T05:33:48.568Z,5.43
2018-07-10T05:36:21.544Z,4.20
2018-07-10T05:38:56.468Z,5.93
2018-07-10T05:41:26.236Z,4.67
2018-07-10T05:44:01.446Z,3.97
2018-07-10T05:46:31.264Z,7.50
2018-07-10T05:49:06.681Z,5.47
2018-07-10T05:51:38.096Z,6.30
2018-07-10T05:54:09.496Z,5.80
2018-07-10T05:56:39.587Z,5.10
2018-07-10T05:59:09.226Z,5.23
2018-07-10T06:01:39.933Z,5.77
2018-07-10T06:04:12.101Z,5.80
2018-07-10T06:06:42.727Z,6.27
2018-07-10T06:09:12.534Z,5.77
2018-07-10T06:11:42.349Z,4.83
2018-07-10T06:14:12.588Z,5.20
2018-07-10T06:16:43.303Z,6.90
2018-07-10T06:19:13.422Z,5.27
2018-07-10T06:21:47.943Z,6.20
2018-07-10T06:24:21.441Z,7.97
2018-07-10T06:26:55.244Z,5.17
2018-07-10T06:29:25.677Z,4.73
2018-07-10T06:31:56.723Z,5.27
2018-07-10T06:34:30.625Z,6.23
2018-07-10T06:37:05.150Z,5.87
2018-07-10T06:39:35.067Z,4.20
2018-07-10T06:42:05.494Z,5.77
2018-07-10T06:44:38.573Z,7.30
2018-07-10T06:47:12.592Z,5.90
2018-07-10T06:49:42.828Z,7.93
2018-07-10T06:52:17.332Z,5.77
2018-07-10T06:54:51.956Z,8.00
2018-07-10T06:57:25.852Z,6.50
2018-07-10T06:59:56.493Z,7.37
2018-07-10T07:02:26.227Z,7.10
2018-07-10T07:04:56.227Z,8.23
2018-07-10T07:07:26.226Z,5.57
2018-07-10T07:10:00.048Z,4.90
2018-07-10T07:12:29.960Z,8.33
2018-07-10T07:14:59.978Z,6.73
2018-07-10T07:17:30.089Z,6.13
2018-07-10T07:19:59.897Z,9.27
2018-07-10T07:22:36.689Z,6.37
2018-07-10T07:25:07.613Z,7.57
2018-07-10T07:27:37.933Z,10.80
2018-07-10T07:30:08.361Z,8.40
2018-07-10T07:32:39.014Z,7.17
2018-07-10T07:35:08.704Z,5.57
2018-07-10T07:37:39.339Z,6.43
2018-07-10T07:40:09.347Z,6.37
2018-07-10T07:42:39.579Z,6.97
2018-07-10T07:45:10.100Z,10.70
2018-07-10T07:47:41.141Z,6.03
2018-07-10T07:50:11.053Z,5.83
2018-07-10T07:52:41.377Z,5.53
2018-07-10T07:55:12.107Z,8.50
2018-07-10T07:57:42.547Z,9.00
2018-07-10T08:00:12.557Z,6.60
2018-07-10T08:02:42.366Z,8.63
2018-07-10T08:05:13.100Z,8.43
2018-07-10T08:10:20.916Z,7.43
2018-07-10T08:12:50.730Z,5.93
2018-07-10T08:15:21.166Z,7.70
2018-07-10T08:17:50.962Z,7.40
2018-07-10T08:20:20.885Z,7.77
2018-07-10T08:22:50.904Z,10.23
2018-07-10T08:25:21.834Z,7.90
2018-07-10T08:27:52.053Z,8.97
2018-07-10T08:30:22.173Z,7.77
2018-07-10T08:32:53.314Z,6.87
2018-07-10T08:35:23.226Z,9.93
2018-07-10T08:37:53.345Z,7.47
2018-07-10T08:40:23.468Z,9.73
2018-07-10T08:42:53.797Z,8.57
2018-07-10T08:45:24.128Z,8.00
2018-07-10T08:47:54.133Z,7.67
2018-07-10T08:50:25.878Z,8.17
2018-07-10T08:52:57.643Z,9.77
2018-07-10T08:55:27.868Z,9.17
2018-07-10T08:57:58.908Z,9.43
2018-07-10T09:00:29.029Z,6.90
2018-07-10T09:02:59.161Z,9.13
2018-07-10T09:05:30.599Z,7.60
2018-07-10T09:08:00.740Z,6.97
2018-07-10T09:10:31.045Z,8.67
2018-07-10T09:13:01.363Z,6.60
2018-07-10T09:15:34.453Z,7.23
2018-07-10T09:18:04.982Z,7.40
2018-07-10T09:20:39.089Z,7.00
2018-07-10T09:23:09.628Z,10.33
2018-07-10T09:25:40.360Z,7.03
2018-07-10T09:28:10.474Z,5.60
2018-07-10T09:30:40.699Z,7.60
2018-07-10T09:33:11.221Z,7.57
2018-07-10T09:35:41.853Z,6.77
2018-07-10T09:38:11.693Z,9.77
2018-07-10T09:40:41.996Z,6.67
2018-07-10T09:43:12.235Z,6.77
2018-07-10T09:45:41.609Z,6.60
2018-07-10T09:48:11.748Z,8.23
2018-07-10T09:50:41.848Z,7.90
2018-07-10T09:53:12.228Z,8.63
2018-07-10T09:55:43.250Z,9.47
2018-07-10T09:58:13.350Z,7.40
2018-07-10T10:00:50.941Z,7.87
2018-07-10T10:03:21.357Z,11.07
2018-07-10T10:05:51.888Z,8.17
2018-07-10T10:08:23.272Z,7.23
2018-07-10T10:10:53.659Z,7.10
2018-07-10T10:13:23.888Z,9.50
2018-07-10T10:15:53.898Z,9.30
2018-07-10T10:18:30.260Z,6.63
2018-07-10T10:21:00.072Z,8.63
2018-07-10T10:23:30.198Z,9.90
2018-07-10T10:26:00.116Z,14.23
2018-07-10T10:28:29.917Z,8.53
2018-07-10T10:31:01.575Z,7.83
2018-07-10T10:33:33.638Z,8.07
2018-07-10T10:36:06.744Z,6.10
2018-07-10T10:38:40.030Z,6.30
2018-07-10T10:41:10.032Z,5.80
2018-07-10T10:43:40.460Z,6.10
2018-07-10T10:46:10.488Z,7.33
2018-07-10T10:48:41.112Z,6.53
2018-07-10T10:51:10.718Z,6.87
2018-07-10T10:53:40.418Z,5.53
2018-07-10T10:56:10.132Z,5.30
2018-07-10T10:58:40.227Z,5.80
2018-07-10T11:01:10.060Z,5.67
2018-07-10T11:03:39.868Z,6.77
2018-07-10T11:06:10.233Z,6.90
2018-07-10T11:08:40.016Z,7.73
2018-07-10T11:11:10.467Z,8.23
2018-07-10T11:13:40.464Z,9.70
2018-07-10T11:16:10.574Z,7.07
2018-07-10T11:18:44.686Z,6.57
2018-07-10T11:21:18.697Z,6.10
2018-07-10T11:23:55.678Z,5.13
2018-07-10T11:26:26.627Z,4.93
2018-07-10T11:28:57.038Z,4.70
2018-07-10T11:31:27.565Z,5.10
2018-07-10T11:33:57.587Z,4.70
2018-07-10T11:36:28.013Z,5.30
2018-07-10T11:38:58.229Z,4.50
2018-07-10T11:41:28.469Z,4.53
2018-07-10T11:43:58.577Z,4.33
2018-07-10T11:46:29.304Z,4.23
2018-07-10T11:48:59.836Z,3.87
2018-07-10T11:51:31.122Z,3.60
2018-07-10T11:54:01.504Z,3.47
2018-07-10T11:56:34.801Z,3.17
2018-07-10T11:59:05.641Z,3.27
2018-07-10T12:01:36.778Z,2.90
2018-07-10T12:04:07.617Z,3.77
2018-07-10T12:06:42.342Z,3.83
2018-07-10T12:09:12.470Z,3.03
2018-07-10T12:11:43.400Z,3.60
2018-07-10T12:14:13.615Z,4.07
2018-07-10T12:16:43.320Z,6.53
2018-07-10T12:19:16.104Z,3.63
2018-07-10T12:21:45.918Z,4.13
2018-07-10T12:24:16.548Z,3.77
2018-07-10T12:26:46.888Z,3.63
2018-07-10T12:29:16.997Z,3.77
2018-07-10T12:31:47.113Z,3.77
2018-07-10T12:34:17.134Z,4.57
2018-07-10T12:36:47.355Z,3.30
2018-07-10T12:39:21.369Z,3.03
2018-07-10T12:41:51.582Z,3.17
2018-07-10T12:44:21.283Z,3.00
2018-07-10T12:46:51.410Z,2.70
2018-07-10T12:49:22.056Z,3.13
2018-07-10T12:51:52.778Z,2.70
2018-07-10T12:54:26.126Z,2.70
2018-07-10T12:56:56.393Z,2.83
2018-07-10T12:59:25.998Z,3.07
2018-07-10T13:01:57.055Z,1.97
2018-07-10T13:04:27.009Z,2.40
2018-07-10T13:06:57.178Z,2.17
2018-07-10T13:09:26.986Z,2.90
2018-07-10T13:11:57.108Z,2.37
2018-07-10T13:14:27.739Z,2.00
2018-07-10T13:16:57.958Z,2.43
2018-07-10T13:19:28.603Z,2.27
2018-07-10T13:21:58.500Z,1.90
2018-07-10T13:24:28.928Z,2.83
2018-07-10T13:26:59.108Z,2.90
2018-07-10T13:29:29.265Z,1.97
2018-07-10T13:31:59.491Z,2.20
2018-07-10T13:34:29.820Z,2.43
2018-07-10T13:37:00.157Z,3.10
2018-07-10T13:39:30.583Z,2.53
2018-07-10T13:42:00.383Z,2.33
2018-07-10T13:44:30.394Z,2.83
2018-07-10T13:47:00.613Z,2.60
2018-07-10T13:49:30.730Z,2.13
2018-07-10T13:52:00.542Z,1.60
2018-07-10T13:54:31.196Z,2.40
2018-07-10T13:57:01.297Z,2.13
2018-07-10T13:59:31.517Z,3.90
2018-07-10T14:02:01.737Z,4.10
2018-07-10T14:04:31.855Z,3.67
2018-07-10T14:07:02.999Z,2.37
2018-07-10T14:09:33.120Z,3.27
2018-07-10T14:12:03.745Z,2.13
2018-07-10T14:14:35.635Z,2.73
2018-07-10T14:17:09.197Z,2.20
2018-07-10T14:19:43.221Z,2.10
2018-07-10T14:22:22.539Z,1.70
2018-07-10T14:25:00.604Z,3.13
2018-07-10T14:27:36.421Z,1.40
2018-07-10T14:30:23.417Z,1.60
2018-07-10T14:33:01.350Z,1.43
2018-07-10T14:35:38.845Z,1.53
2018-07-10T14:38:18.981Z,1.50
2018-07-10T14:41:04.269Z,3.43
2018-07-10T14:43:36.521Z,1.93
2018-07-10T14:46:11.768Z,1.80
2018-07-10T14:48:49.010Z,2.20
2018-07-10T14:51:29.667Z,1.70
2018-07-10T14:54:06.608Z,2.43
2018-07-10T14:56:39.400Z,3.77
2018-07-10T14:59:20.348Z,4.97
2018-07-10T15:01:54.267Z,3.40
2018-07-10T15:04:31.056Z,2.00
2018-07-10T15:07:01.864Z,2.00
2018-07-10T15:09:35.675Z,2.47
2018-07-10T15:12:06.559Z,2.20
2018-07-10T15:14:37.012Z,3.07
2018-07-10T15:17:11.445Z,2.20
2018-07-10T15:19:42.180Z,2.10
2018-07-10T15:22:12.503Z,1.73
2018-07-10T15:24:42.433Z,2.47
2018-07-10T15:27:12.640Z,2.70
2018-07-10T15:29:43.165Z,2.07
2018-07-10T15:32:17.097Z,1.80
2018-07-10T15:34:48.128Z,2.23
2018-07-10T15:37:18.247Z,2.23
2018-07-10T15:39:48.560Z,1.93
2018-07-10T15:42:19.497Z,3.37
2018-07-10T15:44:49.715Z,1.60
2018-07-10T15:47:20.041Z,2.80
2018-07-10T15:49:50.465Z,1.73
2018-07-10T15:52:20.998Z,3.07
2018-07-10T15:54:51.011Z,1.87
2018-07-10T15:57:21.030Z,1.80
2018-07-10T15:59:52.080Z,3.40
2018-07-10T16:02:22.596Z,1.50
2018-07-10T16:04:53.436Z,2.70
2018-07-10T16:07:24.190Z,1.47
2018-07-10T16:09:53.975Z,2.57
2018-07-10T16:12:24.113Z,1.53
2018-07-10T16:14:54.452Z,2.47
2018-07-10T16:17:26.407Z,2.17
2018-07-10T16:20:00.627Z,2.87
2018-07-10T16:22:30.934Z,2.03
2018-07-10T16:25:02.987Z,2.33
2018-07-10T16:27:36.992Z,1.77
2018-07-10T16:30:07.625Z,2.37
2018-07-10T16:32:39.390Z,2.30
2018-07-10T16:35:10.737Z,2.30
2018-07-10T16:37:41.388Z,1.87
2018-07-10T16:40:12.019Z,2.83
2018-07-10T16:42:46.412Z,1.80
2018-07-10T16:45:19.727Z,1.50
2018-07-10T16:47:51.226Z,1.83
2018-07-10T16:50:34.257Z,1.93
2018-07-10T16:53:10.154Z,2.17
2018-07-10T16:55:42.925Z,2.90
2018-07-10T16:58:29.028Z,3.40
2018-07-10T17:01:05.227Z,2.07
2018-07-10T17:03:39.850Z,2.10
2018-07-10T17:06:18.524Z,3.30
2018-07-10T17:08:49.259Z,2.10
2018-07-10T17:11:19.571Z,2.67
2018-07-10T17:13:49.807Z,2.73
2018-07-10T17:16:24.313Z,3.13
2018-07-10T17:18:55.149Z,3.03
2018-07-10T17:21:29.464Z,2.40
2018-07-10T17:24:04.500Z,3.53
2018-07-10T17:26:34.942Z,2.67
2018-07-10T17:29:05.882Z,4.17
2018-07-10T17:31:36.190Z,2.23
2018-07-10T17:34:06.852Z,2.73
2018-07-10T17:36:37.049Z,2.40
2018-07-10T17:39:07.779Z,2.80
2018-07-10T17:41:38.815Z,5.13
2018-07-10T17:44:10.588Z,7.77
2018-07-10T17:46:41.521Z,9.73
2018-07-10T17:49:11.633Z,7.47
2018-07-10T17:51:41.953Z,5.67
2018-07-10T17:54:11.971Z,4.37
2018-07-10T17:56:41.683Z,3.70
2018-07-10T17:59:11.814Z,3.60
2018-07-10T18:01:42.138Z,2.90
2018-07-10T18:04:11.946Z,5.73
2018-07-10T18:06:41.976Z,4.47
2018-07-10T18:09:12.064Z,3.80
2018-07-10T18:11:43.957Z,3.17
2018-07-10T18:14:14.592Z,3.00
2018-07-10T18:16:44.603Z,3.07
2018-07-10T18:19:16.680Z,4.80
2018-07-10T18:21:46.890Z,3.33
2018-07-10T18:24:20.496Z,3.97
2018-07-10T18:26:52.461Z,3.67
2018-07-10T18:29:22.964Z,3.67
2018-07-10T18:31:53.178Z,4.53
2018-07-10T18:34:23.231Z,4.80
2018-07-10T18:36:54.170Z,5.13
2018-07-10T18:39:24.692Z,4.73
2018-07-10T18:41:59.393Z,3.90
2018-07-10T18:44:29.245Z,3.97
2018-07-10T18:46:59.235Z,4.27
2018-07-10T18:49:29.744Z,4.70
2018-07-10T18:52:00.683Z,4.67
2018-07-10T18:54:44.397Z,3.93
2018-07-10T18:57:18.037Z,5.17
2018-07-10T18:59:52.663Z,4.60
2018-07-10T19:02:27.780Z,4.37
2018-07-10T19:05:03.878Z,4.23
2018-07-10T19:07:41.957Z,4.33
2018-07-10T19:10:13.749Z,5.90
2018-07-10T19:12:45.663Z,4.90
2018-07-10T19:15:17.268Z,5.10
2018-07-10T19:17:57.718Z,5.27
2018-07-10T19:20:31.591Z,5.23
2018-07-10T19:23:06.742Z,5.47
2018-07-10T19:25:39.240Z,5.40
2018-07-10T19:28:13.773Z,5.87
2018-07-10T19:30:51.151Z,6.37
2018-07-10T19:33:22.154Z,6.00
2018-07-10T19:35:53.657Z,6.40
2018-07-10T19:38:24.466Z,6.30
2018-07-10T19:40:56.928Z,7.77
2018-07-10T19:43:27.741Z,6.87
2018-07-10T19:45:58.700Z,6.77
2018-07-10T19:48:32.805Z,8.00
2018-07-10T19:51:04.862Z,6.97
2018-07-10T19:53:36.439Z,7.33
2018-07-10T19:56:06.259Z,5.53
2018-07-10T19:58:40.533Z,5.90
2018-07-10T20:01:15.176Z,6.03
2018-07-10T20:03:49.197Z,6.70
2018-07-10T20:06:23.119Z,5.53
2018-07-10T20:08:53.233Z,5.17
2018-07-10T20:11:26.010Z,5.57
2018-07-10T20:13:55.693Z,6.80
2018-07-10T20:16:29.509Z,7.13
2018-07-10T20:19:03.610Z,7.70
2018-07-10T20:21:37.626Z,6.80
2018-07-10T20:24:12.229Z,6.87
2018-07-10T20:26:46.251Z,7.13
2018-07-10T20:29:20.792Z,7.73
2018-07-10T20:31:54.909Z,7.37
2018-07-10T20:34:30.149Z,7.93
2018-07-10T20:37:00.671Z,9.60
2018-07-10T20:39:35.093Z,7.63
2018-07-10T20:42:05.607Z,7.13
2018-07-10T20:44:39.908Z,6.60
2018-07-10T20:47:10.371Z,6.40
2018-07-10T20:49:45.502Z,6.57
2018-07-10T20:52:16.656Z,6.00
2018-07-10T20:54:50.650Z,7.13
2018-07-10T20:57:25.394Z,7.97
2018-07-10T20:59:59.440Z,6.57
2018-07-10T21:02:32.374Z,7.80
2018-07-10T21:05:07.403Z,6.90
2018-07-10T21:07:41.630Z,6.77
2018-07-10T21:10:14.509Z,7.07
2018-07-10T21:12:48.719Z,7.20
2018-07-10T21:15:22.853Z,7.03
2018-07-10T21:17:55.235Z,6.90
2018-07-10T21:20:29.528Z,7.33
2018-07-10T21:23:03.322Z,6.60
2018-07-10T21:25:37.226Z,7.37
2018-07-10T21:28:11.152Z,7.33
2018-07-10T21:30:45.150Z,7.10
2018-07-10T21:33:19.567Z,8.63
2018-07-10T21:35:52.963Z,6.23
2018-07-10T21:38:26.965Z,6.27
2018-07-10T21:41:00.789Z,7.47
2018-07-10T21:43:34.577Z,6.80
2018-07-10T21:46:09.237Z,8.57
2018-07-10T21:48:43.723Z,7.40
2018-07-10T21:51:13.668Z,6.80
2018-07-10T21:53:43.858Z,8.97
2018-07-10T21:56:14.497Z,6.07
2018-07-10T21:58:45.031Z,5.63
2018-07-10T22:01:19.252Z,7.13
2018-07-10T22:03:49.563Z,5.50
2018-07-10T22:06:20.400Z,6.10
2018-07-10T22:08:50.632Z,6.57
2018-07-10T22:11:20.231Z,6.73
2018-07-10T22:13:50.150Z,6.73
2018-07-10T22:16:19.758Z,5.90
2018-07-10T22:18:50.095Z,7.10
2018-07-10T22:21:20.101Z,6.20
2018-07-10T22:23:50.109Z,6.67
2018-07-10T22:26:19.818Z,7.73
2018-07-10T22:28:50.342Z,7.63
2018-07-10T22:31:24.252Z,8.97
2018-07-10T22:33:54.691Z,8.30
2018-07-10T22:36:24.832Z,8.27
2018-07-10T22:38:55.237Z,8.03
2018-07-10T22:41:25.230Z,8.20
2018-07-10T22:43:55.052Z,7.17
2018-07-10T22:46:26.712Z,7.60
2018-07-10T22:49:00.228Z,8.13
2018-07-10T22:51:30.119Z,10.30
2018-07-10T22:54:01.171Z,7.60
2018-07-10T22:56:31.170Z,8.00
2018-07-10T22:59:01.596Z,7.33
2018-07-10T23:01:32.150Z,7.77
2018-07-10T23:04:01.842Z,6.87
2018-07-10T23:06:31.871Z,6.90
2018-07-10T23:09:01.569Z,9.17
2018-07-10T23:11:31.600Z,8.53
2018-07-10T23:14:02.614Z,8.43
2018-07-10T23:16:36.556Z,9.30
2018-07-10T23:19:06.960Z,8.43
2018-07-10T23:21:37.133Z,10.00
2018-07-10T23:24:06.988Z,10.37
2018-07-10T23:26:37.028Z,8.90
2018-07-10T23:29:07.047Z,9.67
2018-07-10T23:31:36.840Z,11.70
2018-07-10T23:34:11.057Z,11.57
2018-07-10T23:36:40.971Z,12.30
2018-07-10T23:39:11.813Z,10.93
2018-07-10T23:41:43.961Z,10.93
2018-07-10T23:44:13.796Z,11.10
2018-07-10T23:46:48.106Z,11.83
2018-07-10T23:49:19.030Z,11.77
2018-07-10T23:51:53.766Z,12.03
2018-07-10T23:54:23.576Z,10.90
2018-07-10T23:56:53.182Z,10.10
2018-07-10T23:59:23.205Z,14.00
